Lake Mathews, CA

8:57 PM PDT on September 16, 2014 (GMT -0700)
Chino | Change Station
CLOSE
Current Station
Airport
Location: Chino,
Elevation: 650 ft
Nearby Weather Stations
Active Advisory: Areal Flood Warning, Areal Flood Advisory Active Notice: Record Report

Elev 650 ft 33.98 °N, 117.64 °W | Updated 4 minutes ago

Clear
Clear
88 °F
Feels Like 87 °F
N
0
Wind Variable Wind from North

Today
High -- | Low -- °F
--% Chance of Precip.
Yesterday
High -- | Low -- °F
Precip. -- in
6:33 AM 6:54 PM
Last Quarter, 40% visible
Pressure 29.74 in
Visibility 9.0 miles
Clouds Clear
Heat Index 87 °F
Dew Point 59 °F
Humidity 37%
Rainfall 0.00 in
Snow Depth 0 in , 0 in , 1 in
UV 0 out of 12
Pollen 6.80 out of 12
Ozone Good
PM2.5 Moderate
Flu Activity Not available.
METAR KCNO 170353Z 00000KT 9SM CLR 31/15 A2976 RMK AO2 SLP070 T03110150

More Conditions Fewer Conditions

Pressure 29.74 in
Visibility 9.0 miles
Clouds Clear
Heat Index 87 °F
Dew Point 59 °F
Humidity 37%
Rainfall 0.00 in
Snow Depth 0 in , 0 in , 1 in
UV 0 out of 12
Pollen 6.80 out of 12
Ozone Good
PM2.5 Moderate
Flu Activity Not available.
METAR KCNO 170353Z 00000KT 9SM CLR 31/15 A2976 RMK AO2 SLP070 T03110150

More Conditions Fewer Conditions

10-Day Weather Forecast

Almanac

Astronomy

Sep. 16, 2014 Rise Set
Actual Time 6:33 AM PDT 6:54 PM PDT
Civil Twilight 6:08 AM PDT 7:19 PM PDT
Nautical Twilight 5:39 AM PDT 7:48 PM PDT
Astronomical Twilight 5:09 AM PDT 8:18 PM PDT
Moon No Moon Rise 2:10 PM PDT (9/16)
Length of Visible Light 13h 10m
Length of Day
12h 20m
Tomorrow will be 2m 4s shorter.
Last Quarter, 40% of the Moon is Illuminated
Today
Last Quarter
Sep 24
New
Oct 1
First Quarter
Oct 8
Full
Oct 15
Last Quarter

Today's Extremes

State Highs State Lows

Community

WunderPhotos

Upload Photos

1,753,956 photos uploaded!

Nearby

Air Quality

  Air Quality AQ Index Pollutant
Yesterday Unhealthy for Sensitive Groups
OZONE
Yesterday Moderate
PM10
Current Moderate
PM2.5
Current Good
OZONE
Wednesday Moderate
OZONE
Wednesday Good
PM10
Wednesday Good
CO
Wednesday Good
NO2

Snow Depth

Station Depth Elevation
Spratt Creek 0 in 6200 ft
Adin Mountain 0 in 6200 ft
Summit Meadow 1 in 9122 ft
Leavitt Meadows 0 in 7200 ft
Hagan's Meadow 0 in 8000 ft

Earthquake Activity

City Distance Mag. Time & Date
La Quinta, California 60 miles 2.7 8:59 PM PDT
2014-09-15
San Jacinto, California 26 miles 3.0 3:16 PM PDT
2014-09-14
Minimum magnitude displayed is 2.5.

Coastal Water Temperatures

Place Temperature
No Stations Reporting

Nearby Weather Stations